This is the latest recevied weather packets stored in our database for station/object KI5NXU. If no packets are shown the sender has not sent any weather packets the latest 10 day(s).
| Time | Temp. | Humidity | Pressure | Rain* | Wind** | Luminosity | Snow |
|---|---|---|---|---|---|---|---|
| 1777235749 | 31.11° C | 65% | 1005 hPa | 0 mm | - | 632 W/m² | - |
| 1777227259 | 28.89° C | 73% | 1006.1 hPa | 0 mm | - | 786 W/m² | - |
| 1777224529 | 28.89° C | 76% | 1007.1 hPa | 0 mm | - | 282 W/m² | - |
| 1777219675 | 27.78° C | 77% | 1006.8 hPa | 0 mm | - | 324 W/m² | - |
| 1777218764 | 26.67° C | 80% | 1006.7 hPa | 0 mm | - | 363 W/m² | - |
| 1777217852 | 25.56° C | 83% | 1007 hPa | 0 mm | - | 275 W/m² | - |
| 1777217547 | 25.56° C | 83% | 1006.9 hPa | 0 mm | - | 374 W/m² | - |
| 1777217244 | 26.11° C | 81% | 1006.9 hPa | 0 mm | - | 415 W/m² | - |
| 1777216940 | 25.56° C | 82% | 1006.8 hPa | 0 mm | - | 521 W/m² | - |
| 1777216333 | 25° C | 85% | 1006.8 hPa | 0 mm | - | 398 W/m² | - |
| 1777216031 | 24.44° C | 86% | 1006.6 hPa | 0 mm | - | 210 W/m² | - |
| 1777215727 | 25° C | 85% | 1006.6 hPa | 0 mm | - | 159 W/m² | - |
| 1777213908 | 25° C | 85% | 1006.4 hPa | 0 mm | - | 239 W/m² | - |
| 1777213300 | 24.44° C | 86% | 1006.4 hPa | 0 mm | - | 199 W/m² | - |
| 1777212996 | 23.89° C | 87% | 1006.4 hPa | 0 mm | - | 235 W/m² | - |
| 1777212694 | 23.89° C | 88% | 1006.2 hPa | 0 mm | - | 219 W/m² | - |
| 1777212393 | 23.89° C | 87% | 1006.1 hPa | 0 mm | - | 194 W/m² | - |
| 1777211785 | 23.89° C | 88% | 1006.4 hPa | 0 mm | - | 216 W/m² | - |
| 1777211483 | 23.89° C | 87% | 1006.1 hPa | 0 mm | - | 195 W/m² | - |
| 1777210575 | 23.33° C | 89% | 1006.6 hPa | 0 mm | - | 139 W/m² | - |
| 1777210272 | 23.33° C | 90% | 1006.4 hPa | 0 mm | - | 161 W/m² | - |
| 1777209968 | 22.78° C | 91% | 1006.4 hPa | 0 mm | - | 126 W/m² | - |
| 1777209360 | 22.78° C | 92% | 1006.1 hPa | 0 mm | - | 97 W/m² | - |
| 1777209056 | 22.22° C | 93% | 1006.4 hPa | 0 mm | - | 87 W/m² | - |
| 1777208752 | 22.22° C | 93% | 1006.2 hPa | 0 mm | - | 79 W/m² | - |
* Rain latest hour (hover to see other rain measurements)
** Current wind speed in m/s (hover to see current wind gust speed)